sensor_id;sensor_type;location;lat;lon;timestamp;P1;durP1;ratioP1;P2;durP2;ratioP2
32874;SDS011;40468;42.128;24.750;2022-11-15T00:01:14;54.10;;;26.08;;
32874;SDS011;40468;42.128;24.750;2022-11-15T00:02:47;51.50;;;26.10;;
32874;SDS011;40468;42.128;24.750;2022-11-15T00:04:19;52.95;;;26.73;;
32874;SDS011;40468;42.128;24.750;2022-11-15T00:05:51;49.55;;;25.23;;
32874;SDS011;40468;42.128;24.750;2022-11-15T00:07:23;50.92;;;26.55;;
32874;SDS011;40468;42.128;24.750;2022-11-15T00:08:57;55.05;;;25.05;;
32874;SDS011;40468;42.128;24.750;2022-11-15T00:10:31;52.50;;;24.75;;
32874;SDS011;40468;42.128;24.750;2022-11-15T00:12:01;53.80;;;25.92;;
32874;SDS011;40468;42.128;24.750;2022-11-15T00:13:33;47.10;;;25.50;;
32874;SDS011;40468;42.128;24.750;2022-11-15T00:15:06;49.65;;;24.45;;
32874;SDS011;40468;42.128;24.750;2022-11-15T00:16:38;45.38;;;24.70;;
32874;SDS011;40468;42.128;24.750;2022-11-15T00:18:11;44.03;;;23.20;;
32874;SDS011;40468;42.128;24.750;2022-11-15T00:19:43;49.53;;;23.73;;
32874;SDS011;40468;42.128;24.750;2022-11-15T00:21:15;50.47;;;24.33;;
32874;SDS011;40468;42.128;24.750;2022-11-15T00:22:48;56.42;;;25.88;;
32874;SDS011;40468;42.128;24.750;2022-11-15T00:24:18;54.42;;;26.27;;
32874;SDS011;40468;42.128;24.750;2022-11-15T00:25:56;50.95;;;23.95;;
32874;SDS011;40468;42.128;24.750;2022-11-15T00:27:29;48.70;;;24.80;;
32874;SDS011;40468;42.128;24.750;2022-11-15T00:29:00;50.33;;;24.50;;
32874;SDS011;40468;42.128;24.750;2022-11-15T00:30:32;49.47;;;24.05;;
32874;SDS011;40468;42.128;24.750;2022-11-15T00:32:04;43.60;;;23.38;;
32874;SDS011;40468;42.128;24.750;2022-11-15T00:33:36;50.47;;;24.33;;
32874;SDS011;40468;42.128;24.750;2022-11-15T00:35:08;53.85;;;25.50;;
32874;SDS011;40468;42.128;24.750;2022-11-15T00:36:40;50.20;;;24.67;;
32874;SDS011;40468;42.128;24.750;2022-11-15T00:38:12;47.17;;;24.13;;
32874;SDS011;40468;42.128;24.750;2022-11-15T00:39:43;44.85;;;23.23;;
32874;SDS011;40468;42.128;24.750;2022-11-15T00:41:16;49.90;;;25.30;;
32874;SDS011;40468;42.128;24.750;2022-11-15T00:42:48;58.17;;;25.63;;
32874;SDS011;40468;42.128;24.750;2022-11-15T00:44:19;54.33;;;25.20;;
32874;SDS011;40468;42.128;24.750;2022-11-15T00:45:51;50.85;;;26.05;;
32874;SDS011;40468;42.128;24.750;2022-11-15T00:47:21;50.58;;;25.55;;
32874;SDS011;40468;42.128;24.750;2022-11-15T00:48:53;49.20;;;24.88;;
32874;SDS011;40468;42.128;24.750;2022-11-15T00:50:25;49.92;;;23.48;;
32874;SDS011;40468;42.128;24.750;2022-11-15T00:51:57;51.35;;;24.20;;
32874;SDS011;40468;42.128;24.750;2022-11-15T00:53:29;49.33;;;24.90;;
32874;SDS011;40468;42.128;24.750;2022-11-15T00:55:01;45.08;;;23.58;;
32874;SDS011;40468;42.128;24.750;2022-11-15T00:56:34;49.03;;;24.55;;
32874;SDS011;40468;42.128;24.750;2022-11-15T00:58:06;47.35;;;23.52;;
32874;SDS011;40468;42.128;24.750;2022-11-15T00:59:38;50.30;;;25.73;;
32874;SDS011;40468;42.128;24.750;2022-11-15T01:01:10;48.03;;;23.17;;
32874;SDS011;40468;42.128;24.750;2022-11-15T01:04:15;41.38;;;22.20;;
32874;SDS011;40468;42.128;24.750;2022-11-15T01:05:47;45.35;;;23.25;;
32874;SDS011;40468;42.128;24.750;2022-11-15T01:07:19;43.78;;;21.25;;
32874;SDS011;40468;42.128;24.750;2022-11-15T01:08:49;43.75;;;21.98;;
32874;SDS011;40468;42.128;24.750;2022-11-15T01:10:21;47.42;;;23.02;;
32874;SDS011;40468;42.128;24.750;2022-11-15T01:11:55;45.78;;;22.95;;
32874;SDS011;40468;42.128;24.750;2022-11-15T01:13:29;46.35;;;22.70;;
32874;SDS011;40468;42.128;24.750;2022-11-15T01:15:00;43.20;;;22.38;;
32874;SDS011;40468;42.128;24.750;2022-11-15T01:16:32;46.80;;;24.00;;
32874;SDS011;40468;42.128;24.750;2022-11-15T01:18:04;48.42;;;23.08;;
32874;SDS011;40468;42.128;24.750;2022-11-15T01:19:36;43.45;;;20.75;;
32874;SDS011;40468;42.128;24.750;2022-11-15T01:21:08;47.92;;;22.98;;
32874;SDS011;40468;42.128;24.750;2022-11-15T01:24:12;42.28;;;20.20;;
32874;SDS011;40468;42.128;24.750;2022-11-15T01:25:44;47.17;;;22.25;;
32874;SDS011;40468;42.128;24.750;2022-11-15T01:27:17;40.42;;;21.13;;
32874;SDS011;40468;42.128;24.750;2022-11-15T01:28:49;43.53;;;21.73;;
32874;SDS011;40468;42.128;24.750;2022-11-15T01:30:20;47.60;;;22.45;;
32874;SDS011;40468;42.128;24.750;2022-11-15T01:31:52;46.13;;;21.40;;
32874;SDS011;40468;42.128;24.750;2022-11-15T01:33:24;44.90;;;21.80;;
32874;SDS011;40468;42.128;24.750;2022-11-15T01:34:56;43.42;;;21.98;;
32874;SDS011;40468;42.128;24.750;2022-11-15T01:36:28;43.45;;;21.42;;
32874;SDS011;40468;42.128;24.750;2022-11-15T01:38:00;44.45;;;22.48;;
32874;SDS011;40468;42.128;24.750;2022-11-15T01:39:31;46.30;;;22.13;;
32874;SDS011;40468;42.128;24.750;2022-11-15T01:41:03;41.78;;;21.33;;
32874;SDS011;40468;42.128;24.750;2022-11-15T01:42:36;42.38;;;22.25;;
32874;SDS011;40468;42.128;24.750;2022-11-15T01:46:15;40.80;;;20.92;;
32874;SDS011;40468;42.128;24.750;2022-11-15T01:47:55;41.60;;;20.75;;
32874;SDS011;40468;42.128;24.750;2022-11-15T01:49:27;51.25;;;20.80;;
32874;SDS011;40468;42.128;24.750;2022-11-15T01:51:04;42.28;;;21.58;;
32874;SDS011;40468;42.128;24.750;2022-11-15T01:52:39;47.55;;;22.42;;
32874;SDS011;40468;42.128;24.750;2022-11-15T01:54:13;44.53;;;21.33;;
32874;SDS011;40468;42.128;24.750;2022-11-15T01:55:47;47.40;;;20.52;;
32874;SDS011;40468;42.128;24.750;2022-11-15T01:57:18;42.00;;;20.23;;
32874;SDS011;40468;42.128;24.750;2022-11-15T01:58:52;50.40;;;22.50;;
32874;SDS011;40468;42.128;24.750;2022-11-15T02:00:26;43.65;;;21.73;;
32874;SDS011;40468;42.128;24.750;2022-11-15T02:01:59;46.22;;;21.88;;
32874;SDS011;40468;42.128;24.750;2022-11-15T02:03:34;49.53;;;22.13;;
32874;SDS011;40468;42.128;24.750;2022-11-15T02:05:12;43.72;;;21.23;;
32874;SDS011;40468;42.128;24.750;2022-11-15T02:06:44;45.33;;;20.90;;
32874;SDS011;40468;42.128;24.750;2022-11-15T02:08:18;42.88;;;21.20;;
32874;SDS011;40468;42.128;24.750;2022-11-15T02:09:50;45.60;;;21.50;;
32874;SDS011;40468;42.128;24.750;2022-11-15T02:11:23;46.17;;;20.77;;
32874;SDS011;40468;42.128;24.750;2022-11-15T02:12:55;46.00;;;21.92;;
32874;SDS011;40468;42.128;24.750;2022-11-15T02:14:31;50.95;;;21.65;;
32874;SDS011;40468;42.128;24.750;2022-11-15T02:16:05;48.90;;;21.75;;
32874;SDS011;40468;42.128;24.750;2022-11-15T02:17:48;48.50;;;21.35;;
32874;SDS011;40468;42.128;24.750;2022-11-15T02:19:36;48.38;;;21.45;;
32874;SDS011;40468;42.128;24.750;2022-11-15T02:21:26;47.38;;;22.25;;
32874;SDS011;40468;42.128;24.750;2022-11-15T02:25:21;48.72;;;21.55;;
32874;SDS011;40468;42.128;24.750;2022-11-15T02:29:18;53.60;;;21.67;;
32874;SDS011;40468;42.128;24.750;2022-11-15T02:31:02;44.95;;;20.85;;
32874;SDS011;40468;42.128;24.750;2022-11-15T02:32:39;47.78;;;21.42;;
32874;SDS011;40468;42.128;24.750;2022-11-15T02:34:19;47.13;;;21.58;;
32874;SDS011;40468;42.128;24.750;2022-11-15T02:35:57;47.97;;;22.45;;
32874;SDS011;40468;42.128;24.750;2022-11-15T02:37:33;41.05;;;21.80;;
32874;SDS011;40468;42.128;24.750;2022-11-15T02:39:10;46.42;;;20.80;;
32874;SDS011;40468;42.128;24.750;2022-11-15T02:40:45;47.50;;;21.52;;
32874;SDS011;40468;42.128;24.750;2022-11-15T02:42:25;48.75;;;20.33;;
32874;SDS011;40468;42.128;24.750;2022-11-15T02:44:16;44.80;;;20.10;;
32874;SDS011;40468;42.128;24.750;2022-11-15T02:45:54;48.33;;;21.60;;
32874;SDS011;40468;42.128;24.750;2022-11-15T02:47:34;52.28;;;21.05;;
32874;SDS011;40468;42.128;24.750;2022-11-15T02:49:12;45.92;;;21.38;;
32874;SDS011;40468;42.128;24.750;2022-11-15T02:50:45;53.25;;;21.35;;
32874;SDS011;40468;42.128;24.750;2022-11-15T02:52:19;46.05;;;21.60;;
32874;SDS011;40468;42.128;24.750;2022-11-15T02:53:53;39.70;;;19.40;;
32874;SDS011;40468;42.128;24.750;2022-11-15T02:55:26;45.28;;;22.73;;
32874;SDS011;40468;42.128;24.750;2022-11-15T02:57:01;46.33;;;20.70;;
32874;SDS011;40468;42.128;24.750;2022-11-15T02:58:40;39.00;;;19.80;;
32874;SDS011;40468;42.128;24.750;2022-11-15T03:00:34;42.42;;;19.88;;
32874;SDS011;40468;42.128;24.750;2022-11-15T03:02:13;42.40;;;20.08;;
32874;SDS011;40468;42.128;24.750;2022-11-15T03:03:59;42.38;;;20.60;;
32874;SDS011;40468;42.128;24.750;2022-11-15T03:05:43;42.03;;;19.40;;
32874;SDS011;40468;42.128;24.750;2022-11-15T03:07:22;43.95;;;21.33;;
32874;SDS011;40468;42.128;24.750;2022-11-15T03:09:02;40.92;;;19.80;;
32874;SDS011;40468;42.128;24.750;2022-11-15T03:10:40;40.67;;;19.55;;
32874;SDS011;40468;42.128;24.750;2022-11-15T03:12:17;44.67;;;20.65;;
32874;SDS011;40468;42.128;24.750;2022-11-15T03:13:56;45.95;;;19.67;;
32874;SDS011;40468;42.128;24.750;2022-11-15T03:15:31;43.97;;;20.27;;
32874;SDS011;40468;42.128;24.750;2022-11-15T03:17:10;49.17;;;20.52;;
32874;SDS011;40468;42.128;24.750;2022-11-15T03:18:47;43.88;;;20.25;;
32874;SDS011;40468;42.128;24.750;2022-11-15T03:20:25;45.80;;;20.25;;
32874;SDS011;40468;42.128;24.750;2022-11-15T03:21:59;44.10;;;19.38;;
32874;SDS011;40468;42.128;24.750;2022-11-15T03:23:34;48.13;;;20.38;;
32874;SDS011;40468;42.128;24.750;2022-11-15T03:25:08;39.67;;;19.45;;
32874;SDS011;40468;42.128;24.750;2022-11-15T03:26:45;41.50;;;20.05;;
32874;SDS011;40468;42.128;24.750;2022-11-15T03:28:20;43.78;;;19.52;;
32874;SDS011;40468;42.128;24.750;2022-11-15T03:29:56;44.85;;;20.55;;
32874;SDS011;40468;42.128;24.750;2022-11-15T03:31:31;40.88;;;19.45;;
32874;SDS011;40468;42.128;24.750;2022-11-15T03:33:19;40.20;;;18.83;;
32874;SDS011;40468;42.128;24.750;2022-11-15T03:34:53;43.22;;;18.85;;
32874;SDS011;40468;42.128;24.750;2022-11-15T03:36:30;42.42;;;19.25;;
32874;SDS011;40468;42.128;24.750;2022-11-15T03:38:05;41.25;;;19.83;;
32874;SDS011;40468;42.128;24.750;2022-11-15T03:39:42;34.40;;;17.42;;
32874;SDS011;40468;42.128;24.750;2022-11-15T03:41:15;38.57;;;17.97;;
32874;SDS011;40468;42.128;24.750;2022-11-15T03:42:54;35.88;;;17.58;;
32874;SDS011;40468;42.128;24.750;2022-11-15T03:44:35;33.63;;;16.55;;
32874;SDS011;40468;42.128;24.750;2022-11-15T03:46:13;36.67;;;16.83;;
32874;SDS011;40468;42.128;24.750;2022-11-15T03:47:49;34.70;;;17.38;;
32874;SDS011;40468;42.128;24.750;2022-11-15T03:49:29;31.45;;;16.73;;
32874;SDS011;40468;42.128;24.750;2022-11-15T03:51:04;36.83;;;16.25;;
32874;SDS011;40468;42.128;24.750;2022-11-15T03:52:38;37.83;;;17.47;;
32874;SDS011;40468;42.128;24.750;2022-11-15T03:54:11;32.47;;;15.57;;
32874;SDS011;40468;42.128;24.750;2022-11-15T03:55:43;35.42;;;17.42;;
32874;SDS011;40468;42.128;24.750;2022-11-15T03:57:15;36.47;;;17.27;;
32874;SDS011;40468;42.128;24.750;2022-11-15T03:58:46;35.50;;;17.80;;
32874;SDS011;40468;42.128;24.750;2022-11-15T04:00:18;36.05;;;16.40;;
32874;SDS011;40468;42.128;24.750;2022-11-15T04:01:50;39.50;;;17.48;;
32874;SDS011;40468;42.128;24.750;2022-11-15T04:03:22;39.50;;;17.55;;
32874;SDS011;40468;42.128;24.750;2022-11-15T04:04:54;39.20;;;18.85;;
32874;SDS011;40468;42.128;24.750;2022-11-15T04:06:25;37.15;;;18.60;;
32874;SDS011;40468;42.128;24.750;2022-11-15T04:07:58;43.10;;;18.50;;
32874;SDS011;40468;42.128;24.750;2022-11-15T04:09:30;38.22;;;18.05;;
32874;SDS011;40468;42.128;24.750;2022-11-15T04:11:01;37.38;;;17.65;;
32874;SDS011;40468;42.128;24.750;2022-11-15T04:12:33;40.30;;;18.92;;
32874;SDS011;40468;42.128;24.750;2022-11-15T04:14:06;41.35;;;19.83;;
32874;SDS011;40468;42.128;24.750;2022-11-15T04:15:37;40.50;;;19.05;;
32874;SDS011;40468;42.128;24.750;2022-11-15T04:17:09;40.05;;;19.25;;
32874;SDS011;40468;42.128;24.750;2022-11-15T04:18:40;36.88;;;18.95;;
32874;SDS011;40468;42.128;24.750;2022-11-15T04:20:14;36.75;;;18.25;;
32874;SDS011;40468;42.128;24.750;2022-11-15T04:22:04;38.15;;;18.73;;
32874;SDS011;40468;42.128;24.750;2022-11-15T04:23:57;36.92;;;18.17;;
32874;SDS011;40468;42.128;24.750;2022-11-15T04:25:44;38.13;;;17.48;;
32874;SDS011;40468;42.128;24.750;2022-11-15T04:27:18;38.63;;;17.13;;
32874;SDS011;40468;42.128;24.750;2022-11-15T04:28:50;39.63;;;17.33;;
32874;SDS011;40468;42.128;24.750;2022-11-15T04:30:39;31.50;;;16.90;;
32874;SDS011;40468;42.128;24.750;2022-11-15T04:32:11;35.97;;;17.63;;
32874;SDS011;40468;42.128;24.750;2022-11-15T04:33:42;40.03;;;17.85;;
32874;SDS011;40468;42.128;24.750;2022-11-15T04:35:14;35.80;;;16.90;;
32874;SDS011;40468;42.128;24.750;2022-11-15T04:36:45;36.80;;;16.83;;
32874;SDS011;40468;42.128;24.750;2022-11-15T04:38:35;36.08;;;16.50;;
32874;SDS011;40468;42.128;24.750;2022-11-15T04:40:09;44.83;;;17.02;;
32874;SDS011;40468;42.128;24.750;2022-11-15T04:41:41;36.22;;;16.50;;
32874;SDS011;40468;42.128;24.750;2022-11-15T04:43:13;41.38;;;18.10;;
32874;SDS011;40468;42.128;24.750;2022-11-15T04:44:45;31.67;;;16.05;;
32874;SDS011;40468;42.128;24.750;2022-11-15T04:46:17;33.70;;;17.58;;
32874;SDS011;40468;42.128;24.750;2022-11-15T04:47:49;39.67;;;17.95;;
32874;SDS011;40468;42.128;24.750;2022-11-15T04:49:21;38.55;;;18.38;;
32874;SDS011;40468;42.128;24.750;2022-11-15T04:50:53;36.38;;;18.13;;
32874;SDS011;40468;42.128;24.750;2022-11-15T04:52:24;40.00;;;16.95;;
32874;SDS011;40468;42.128;24.750;2022-11-15T04:53:55;38.38;;;17.30;;
32874;SDS011;40468;42.128;24.750;2022-11-15T04:55:29;41.05;;;19.15;;
32874;SDS011;40468;42.128;24.750;2022-11-15T04:57:01;40.45;;;19.40;;
32874;SDS011;40468;42.128;24.750;2022-11-15T04:58:33;39.30;;;17.85;;
32874;SDS011;40468;42.128;24.750;2022-11-15T05:00:06;43.38;;;19.20;;
32874;SDS011;40468;42.128;24.750;2022-11-15T05:01:39;37.17;;;19.08;;
32874;SDS011;40468;42.128;24.750;2022-11-15T05:03:10;44.10;;;19.63;;
32874;SDS011;40468;42.128;24.750;2022-11-15T05:05:00;46.53;;;20.73;;
32874;SDS011;40468;42.128;24.750;2022-11-15T05:06:31;45.40;;;20.52;;
32874;SDS011;40468;42.128;24.750;2022-11-15T05:08:02;42.53;;;20.42;;
32874;SDS011;40468;42.128;24.750;2022-11-15T05:09:34;45.25;;;20.80;;
32874;SDS011;40468;42.128;24.750;2022-11-15T05:11:08;44.03;;;21.58;;
32874;SDS011;40468;42.128;24.750;2022-11-15T05:12:40;60.70;;;30.05;;
32874;SDS011;40468;42.128;24.750;2022-11-15T05:14:11;58.88;;;28.33;;
32874;SDS011;40468;42.128;24.750;2022-11-15T05:15:43;48.60;;;23.90;;
32874;SDS011;40468;42.128;24.750;2022-11-15T05:17:15;51.47;;;23.38;;
32874;SDS011;40468;42.128;24.750;2022-11-15T05:18:46;48.10;;;24.35;;
32874;SDS011;40468;42.128;24.750;2022-11-15T05:20:18;49.83;;;23.98;;
32874;SDS011;40468;42.128;24.750;2022-11-15T05:21:50;59.15;;;25.30;;
32874;SDS011;40468;42.128;24.750;2022-11-15T05:23:22;49.30;;;23.00;;
32874;SDS011;40468;42.128;24.750;2022-11-15T05:24:52;48.15;;;22.77;;
32874;SDS011;40468;42.128;24.750;2022-11-15T05:26:26;42.05;;;22.15;;
32874;SDS011;40468;42.128;24.750;2022-11-15T05:27:57;42.97;;;21.63;;
32874;SDS011;40468;42.128;24.750;2022-11-15T05:29:29;41.50;;;19.27;;
32874;SDS011;40468;42.128;24.750;2022-11-15T05:31:02;38.75;;;18.48;;
32874;SDS011;40468;42.128;24.750;2022-11-15T05:32:33;35.50;;;17.17;;
32874;SDS011;40468;42.128;24.750;2022-11-15T05:34:05;39.00;;;17.73;;
32874;SDS011;40468;42.128;24.750;2022-11-15T05:35:37;30.65;;;15.88;;
32874;SDS011;40468;42.128;24.750;2022-11-15T05:37:12;31.42;;;16.05;;
32874;SDS011;40468;42.128;24.750;2022-11-15T05:38:45;33.65;;;16.38;;
32874;SDS011;40468;42.128;24.750;2022-11-15T05:40:17;34.22;;;17.98;;
32874;SDS011;40468;42.128;24.750;2022-11-15T05:41:51;65.53;;;28.70;;
32874;SDS011;40468;42.128;24.750;2022-11-15T05:43:26;78.38;;;37.80;;
32874;SDS011;40468;42.128;24.750;2022-11-15T05:44:59;154.43;;;75.10;;
32874;SDS011;40468;42.128;24.750;2022-11-15T05:46:33;42.22;;;22.77;;
32874;SDS011;40468;42.128;24.750;2022-11-15T05:48:08;38.00;;;18.13;;
32874;SDS011;40468;42.128;24.750;2022-11-15T05:49:41;44.80;;;18.55;;
32874;SDS011;40468;42.128;24.750;2022-11-15T05:51:16;36.17;;;17.63;;
32874;SDS011;40468;42.128;24.750;2022-11-15T05:52:50;37.33;;;18.15;;
32874;SDS011;40468;42.128;24.750;2022-11-15T05:54:23;38.13;;;18.33;;
32874;SDS011;40468;42.128;24.750;2022-11-15T05:55:56;43.58;;;18.48;;
32874;SDS011;40468;42.128;24.750;2022-11-15T05:57:29;37.05;;;17.10;;
32874;SDS011;40468;42.128;24.750;2022-11-15T05:59:01;34.80;;;16.83;;
32874;SDS011;40468;42.128;24.750;2022-11-15T06:00:34;33.78;;;15.20;;
32874;SDS011;40468;42.128;24.750;2022-11-15T06:02:06;32.20;;;15.20;;
32874;SDS011;40468;42.128;24.750;2022-11-15T06:03:38;33.15;;;15.70;;
32874;SDS011;40468;42.128;24.750;2022-11-15T06:05:10;35.85;;;16.50;;
32874;SDS011;40468;42.128;24.750;2022-11-15T06:06:42;30.48;;;15.30;;
32874;SDS011;40468;42.128;24.750;2022-11-15T06:08:14;32.80;;;16.15;;
32874;SDS011;40468;42.128;24.750;2022-11-15T06:09:46;36.83;;;17.40;;
32874;SDS011;40468;42.128;24.750;2022-11-15T06:11:18;38.00;;;16.58;;
32874;SDS011;40468;42.128;24.750;2022-11-15T06:12:57;31.67;;;15.82;;
32874;SDS011;40468;42.128;24.750;2022-11-15T06:14:29;30.90;;;15.23;;
32874;SDS011;40468;42.128;24.750;2022-11-15T06:16:01;33.15;;;16.17;;
32874;SDS011;40468;42.128;24.750;2022-11-15T06:17:34;33.05;;;15.77;;
32874;SDS011;40468;42.128;24.750;2022-11-15T06:19:06;34.60;;;15.10;;
32874;SDS011;40468;42.128;24.750;2022-11-15T06:20:38;37.47;;;16.13;;
32874;SDS011;40468;42.128;24.750;2022-11-15T06:22:10;34.22;;;16.10;;
32874;SDS011;40468;42.128;24.750;2022-11-15T06:23:42;40.78;;;16.80;;
32874;SDS011;40468;42.128;24.750;2022-11-15T06:25:14;35.17;;;15.98;;
32874;SDS011;40468;42.128;24.750;2022-11-15T06:26:46;38.38;;;16.73;;
32874;SDS011;40468;42.128;24.750;2022-11-15T06:28:20;46.05;;;16.80;;
32874;SDS011;40468;42.128;24.750;2022-11-15T06:29:52;38.53;;;17.42;;
32874;SDS011;40468;42.128;24.750;2022-11-15T06:31:24;36.60;;;17.00;;
32874;SDS011;40468;42.128;24.750;2022-11-15T06:33:00;33.55;;;15.38;;
32874;SDS011;40468;42.128;24.750;2022-11-15T06:34:33;42.90;;;18.85;;
32874;SDS011;40468;42.128;24.750;2022-11-15T06:36:06;36.88;;;17.90;;
32874;SDS011;40468;42.128;24.750;2022-11-15T06:37:40;44.10;;;19.85;;
32874;SDS011;40468;42.128;24.750;2022-11-15T06:39:12;35.25;;;16.90;;
32874;SDS011;40468;42.128;24.750;2022-11-15T06:40:44;34.78;;;16.52;;
32874;SDS011;40468;42.128;24.750;2022-11-15T06:42:19;41.38;;;17.90;;
32874;SDS011;40468;42.128;24.750;2022-11-15T06:43:56;29.42;;;14.50;;
32874;SDS011;40468;42.128;24.750;2022-11-15T06:45:28;32.33;;;14.48;;
32874;SDS011;40468;42.128;24.750;2022-11-15T06:47:01;73.05;;;34.28;;
32874;SDS011;40468;42.128;24.750;2022-11-15T06:48:33;41.03;;;19.83;;
32874;SDS011;40468;42.128;24.750;2022-11-15T06:50:06;91.07;;;41.10;;
32874;SDS011;40468;42.128;24.750;2022-11-15T06:51:39;44.35;;;21.75;;
32874;SDS011;40468;42.128;24.750;2022-11-15T06:53:11;70.70;;;32.83;;
32874;SDS011;40468;42.128;24.750;2022-11-15T06:54:43;38.03;;;16.70;;
32874;SDS011;40468;42.128;24.750;2022-11-15T06:56:15;32.25;;;15.57;;
32874;SDS011;40468;42.128;24.750;2022-11-15T06:57:47;32.30;;;14.85;;
32874;SDS011;40468;42.128;24.750;2022-11-15T06:59:21;34.13;;;15.52;;
32874;SDS011;40468;42.128;24.750;2022-11-15T07:00:53;31.00;;;14.45;;
32874;SDS011;40468;42.128;24.750;2022-11-15T07:02:29;44.00;;;16.10;;
32874;SDS011;40468;42.128;24.750;2022-11-15T07:04:01;30.83;;;14.80;;
32874;SDS011;40468;42.128;24.750;2022-11-15T07:05:33;29.58;;;13.85;;
32874;SDS011;40468;42.128;24.750;2022-11-15T07:07:05;42.13;;;14.10;;
32874;SDS011;40468;42.128;24.750;2022-11-15T07:08:37;35.90;;;14.52;;
32874;SDS011;40468;42.128;24.750;2022-11-15T07:10:11;29.95;;;13.60;;
32874;SDS011;40468;42.128;24.750;2022-11-15T07:11:43;30.20;;;14.15;;
32874;SDS011;40468;42.128;24.750;2022-11-15T07:13:15;30.50;;;14.15;;
32874;SDS011;40468;42.128;24.750;2022-11-15T07:14:49;24.83;;;12.30;;
32874;SDS011;40468;42.128;24.750;2022-11-15T07:17:53;20.80;;;11.20;;
32874;SDS011;40468;42.128;24.750;2022-11-15T07:19:25;27.90;;;12.70;;
32874;SDS011;40468;42.128;24.750;2022-11-15T07:20:59;27.70;;;13.20;;
32874;SDS011;40468;42.128;24.750;2022-11-15T07:22:32;28.02;;;14.05;;
32874;SDS011;40468;42.128;24.750;2022-11-15T07:24:04;37.28;;;13.48;;
32874;SDS011;40468;42.128;24.750;2022-11-15T07:25:37;23.15;;;13.75;;
32874;SDS011;40468;42.128;24.750;2022-11-15T07:27:09;29.83;;;14.18;;
32874;SDS011;40468;42.128;24.750;2022-11-15T07:28:41;32.38;;;14.23;;
32874;SDS011;40468;42.128;24.750;2022-11-15T07:30:14;38.63;;;15.30;;
32874;SDS011;40468;42.128;24.750;2022-11-15T07:31:46;37.92;;;14.73;;
32874;SDS011;40468;42.128;24.750;2022-11-15T07:33:19;33.92;;;15.80;;
32874;SDS011;40468;42.128;24.750;2022-11-15T07:34:51;27.60;;;14.00;;
32874;SDS011;40468;42.128;24.750;2022-11-15T07:36:23;24.85;;;14.18;;
32874;SDS011;40468;42.128;24.750;2022-11-15T07:37:58;30.42;;;13.75;;
32874;SDS011;40468;42.128;24.750;2022-11-15T07:39:31;29.30;;;13.85;;
32874;SDS011;40468;42.128;24.750;2022-11-15T07:41:04;31.35;;;14.10;;
32874;SDS011;40468;42.128;24.750;2022-11-15T07:42:36;28.05;;;14.50;;
32874;SDS011;40468;42.128;24.750;2022-11-15T07:44:25;29.73;;;14.10;;
32874;SDS011;40468;42.128;24.750;2022-11-15T07:45:59;35.65;;;14.48;;
32874;SDS011;40468;42.128;24.750;2022-11-15T07:47:39;24.38;;;13.85;;
32874;SDS011;40468;42.128;24.750;2022-11-15T07:49:10;28.98;;;14.25;;
32874;SDS011;40468;42.128;24.750;2022-11-15T07:52:15;28.73;;;14.07;;
32874;SDS011;40468;42.128;24.750;2022-11-15T07:53:47;28.42;;;14.20;;
32874;SDS011;40468;42.128;24.750;2022-11-15T07:55:19;30.83;;;14.30;;
32874;SDS011;40468;42.128;24.750;2022-11-15T07:56:51;28.20;;;14.70;;
32874;SDS011;40468;42.128;24.750;2022-11-15T07:58:23;32.08;;;14.45;;
32874;SDS011;40468;42.128;24.750;2022-11-15T07:59:55;28.90;;;13.43;;
32874;SDS011;40468;42.128;24.750;2022-11-15T08:01:28;39.70;;;14.88;;
32874;SDS011;40468;42.128;24.750;2022-11-15T08:03:03;29.75;;;15.60;;
32874;SDS011;40468;42.128;24.750;2022-11-15T08:04:36;34.55;;;14.07;;
32874;SDS011;40468;42.128;24.750;2022-11-15T08:06:08;31.35;;;14.48;;
32874;SDS011;40468;42.128;24.750;2022-11-15T08:07:40;32.13;;;15.00;;
32874;SDS011;40468;42.128;24.750;2022-11-15T08:09:12;31.75;;;14.23;;
32874;SDS011;40468;42.128;24.750;2022-11-15T08:10:44;27.55;;;14.85;;
32874;SDS011;40468;42.128;24.750;2022-11-15T08:12:15;29.45;;;14.48;;
32874;SDS011;40468;42.128;24.750;2022-11-15T08:13:47;33.20;;;15.15;;
32874;SDS011;40468;42.128;24.750;2022-11-15T08:15:19;24.75;;;14.52;;
32874;SDS011;40468;42.128;24.750;2022-11-15T08:16:52;28.98;;;15.52;;
32874;SDS011;40468;42.128;24.750;2022-11-15T08:18:25;26.42;;;14.82;;
32874;SDS011;40468;42.128;24.750;2022-11-15T08:19:57;32.97;;;16.20;;
32874;SDS011;40468;42.128;24.750;2022-11-15T08:21:29;25.30;;;14.68;;
32874;SDS011;40468;42.128;24.750;2022-11-15T08:23:02;22.17;;;13.32;;
32874;SDS011;40468;42.128;24.750;2022-11-15T08:26:08;25.77;;;14.55;;
32874;SDS011;40468;42.128;24.750;2022-11-15T08:27:39;27.60;;;14.02;;
32874;SDS011;40468;42.128;24.750;2022-11-15T08:29:11;28.80;;;15.20;;
32874;SDS011;40468;42.128;24.750;2022-11-15T08:30:43;25.08;;;13.68;;
32874;SDS011;40468;42.128;24.750;2022-11-15T08:32:17;30.90;;;13.30;;
32874;SDS011;40468;42.128;24.750;2022-11-15T08:35:20;34.35;;;14.57;;
32874;SDS011;40468;42.128;24.750;2022-11-15T08:36:53;31.98;;;16.50;;
32874;SDS011;40468;42.128;24.750;2022-11-15T08:38:25;31.60;;;16.00;;
32874;SDS011;40468;42.128;24.750;2022-11-15T08:41:31;28.88;;;13.05;;
32874;SDS011;40468;42.128;24.750;2022-11-15T08:43:04;24.75;;;13.75;;
32874;SDS011;40468;42.128;24.750;2022-11-15T08:44:36;36.33;;;14.30;;
32874;SDS011;40468;42.128;24.750;2022-11-15T08:46:08;29.30;;;15.20;;
32874;SDS011;40468;42.128;24.750;2022-11-15T08:47:45;35.10;;;15.77;;
32874;SDS011;40468;42.128;24.750;2022-11-15T08:49:16;28.08;;;14.55;;
32874;SDS011;40468;42.128;24.750;2022-11-15T08:50:48;28.08;;;14.93;;
32874;SDS011;40468;42.128;24.750;2022-11-15T08:52:20;31.73;;;15.80;;
32874;SDS011;40468;42.128;24.750;2022-11-15T08:53:52;27.42;;;14.75;;
32874;SDS011;40468;42.128;24.750;2022-11-15T08:55:24;29.33;;;14.77;;
32874;SDS011;40468;42.128;24.750;2022-11-15T08:56:56;27.88;;;16.23;;
32874;SDS011;40468;42.128;24.750;2022-11-15T08:58:28;27.95;;;16.05;;
32874;SDS011;40468;42.128;24.750;2022-11-15T09:00:00;27.77;;;16.52;;
32874;SDS011;40468;42.128;24.750;2022-11-15T09:01:31;30.80;;;16.35;;
32874;SDS011;40468;42.128;24.750;2022-11-15T09:03:05;28.73;;;15.57;;
32874;SDS011;40468;42.128;24.750;2022-11-15T09:04:39;28.70;;;16.60;;
32874;SDS011;40468;42.128;24.750;2022-11-15T09:06:12;27.90;;;16.95;;
32874;SDS011;40468;42.128;24.750;2022-11-15T09:07:45;35.08;;;16.95;;
32874;SDS011;40468;42.128;24.750;2022-11-15T09:09:16;27.80;;;16.58;;
32874;SDS011;40468;42.128;24.750;2022-11-15T09:10:48;29.63;;;18.08;;
32874;SDS011;40468;42.128;24.750;2022-11-15T09:12:20;27.85;;;16.77;;
32874;SDS011;40468;42.128;24.750;2022-11-15T09:13:52;31.50;;;16.23;;
32874;SDS011;40468;42.128;24.750;2022-11-15T09:15:24;39.92;;;17.80;;
32874;SDS011;40468;42.128;24.750;2022-11-15T09:16:56;33.45;;;17.63;;
32874;SDS011;40468;42.128;24.750;2022-11-15T09:18:29;36.70;;;18.17;;